MAPA DE AEROPUERTO

INFORMACIÓN METAR y TAF


Deprecated: The each() function is deprecated. This message will be suppressed on further calls in /home/customer/www/clickair-va.com/public_html/VAM/vam/helpers/get_metar.php on line 20
METAR FOR LEMG
ADDS - METARS form results

(0336 UTC 28 January 2023)
Data provider http://aviationweather.gov/metar/data/
 
METAR text: LEMG 280330Z 27013KT 9999 FEW040 08/M01 Q1016 NOSIG
Conditions at: LEMG (MALAGA (CIV/MIL), ES) observed 0330 UTC 28 January 2023
Temperature: 8.0°C (46°F)
Dewpoint: -1.0°C (30°F) [RH = 53%]
Pressure (altimeter): 30.00 inches Hg (1016.0 mb)
Winds: from the W (270 degrees) at 15 MPH (13 knots; 6.7 m/s)
Visibility: 6 or more miles (10+ km)
Ceiling: at least 12,000 feet AGL
Clouds: few clouds at 4000 feet AGL
Weather: no significant weather observed at this time

METAR text: LEMG 280300Z 28012KT 9999 FEW040 08/M01 Q1016 NOSIG
Conditions at: LEMG (MALAGA (CIV/MIL), ES) observed 0300 UTC 28 January 2023
Temperature: 8.0°C (46°F)
Dewpoint: -1.0°C (30°F) [RH = 53%]
Pressure (altimeter): 30.00 inches Hg (1016.0 mb)
Winds: from the W (280 degrees) at 14 MPH (12 knots; 6.2 m/s)
Visibility: 6 or more miles (10+ km)
Ceiling: at least 12,000 feet AGL
Clouds: few clouds at 4000 feet AGL
Weather: no significant weather observed at this time

Forecast for: LEMG (MALAGA (CIV/MIL), ES)
Text: TAF LEMG 272300Z 2800/2824 29012KT CAVOK TX14/2815Z TN06/2806Z
Forecast period: 0000 to 1200 UTC 28 January 2023
Forecast type: FROM: standard forecast or significant change
Winds: from the WNW (290 degrees) at 14 MPH (12 knots; 6.2 m/s)
Visibility: 6 or more miles (10+ km)
Ceiling: unknown
Clouds: missing
Weather: no significant weather forecast for this period
Text: TEMPO 2805/2810 27018G29KT
Forecast period: 0500 to 1000 UTC 28 January 2023
Forecast type: TEMPORARY: The following changes expected for less than half the time period
Winds: from the W (270 degrees) at 21 MPH (18 knots; 9.3 m/s)
gusting to 33 MPH (29 knots; 14.9 m/s)
Visibility: missing
Ceiling: unknown
Clouds: missing
Weather: no significant weather forecast for this period
Text: BECMG 2812/2814 16005KT
Forecast period: 1200 to 1800 UTC 28 January 2023
Forecast type: BECOMING: Conditions expected to become as follows by 1400 UTC 28 January 2023
Winds: from the SSE (160 degrees) at 6 MPH (5 knots; 2.6 m/s)
Visibility: 6 or more miles (10+ km)
Ceiling: unknown
Clouds: missing
Weather: no significant weather forecast for this period
Text: BECMG 2818/2820 27006KT
Forecast period: 1800 UTC 28 January 2023 to 0000 UTC 29 January 2023
Forecast type: BECOMING: Conditions expected to become as follows by 2000 UTC 28 January 2023
Winds: from the W (270 degrees) at 7 MPH (6 knots; 3.1 m/s)
Visibility: 6 or more miles (10+ km)
Ceiling: unknown
Clouds: missing
Weather: no significant weather forecast for this period